Air Navigation Services of Czech Republic
Airport: LKLN Updated:  20.05.2022 19:20:31  UTC
 METAR LKLN 20.05. 19:30 ...
METAR LKLN 201930Z AUTO VRB04KT 9999 -TSRA OVC100 17/16 Q1017=